createdAt,value
2018-12-20T00:00:44.051Z,96623.50
2018-12-20T00:02:19.676Z,96616.84
2018-12-20T00:03:56.556Z,96616.55
2018-12-20T00:05:31.822Z,96617.08
2018-12-20T00:07:07.320Z,96613.55
2018-12-20T00:08:43.224Z,96609.83
2018-12-20T00:10:18.291Z,96609.42
2018-12-20T00:11:53.676Z,96611.66
2018-12-20T00:13:28.742Z,96609.13
2018-12-20T00:15:06.385Z,96606.53
2018-12-20T00:16:42.609Z,96608.53
2018-12-20T00:18:17.787Z,96603.29
2018-12-20T00:19:54.338Z,96609.71
2018-12-20T00:21:29.866Z,96601.41
2018-12-20T00:23:05.031Z,96594.50
2018-12-20T00:24:40.155Z,96592.27
2018-12-20T00:26:15.544Z,96589.14
2018-12-20T00:27:51.138Z,96592.41
2018-12-20T00:29:26.255Z,96589.52
2018-12-20T00:31:01.687Z,96587.31
2018-12-20T00:32:36.762Z,96581.83
2018-12-20T00:34:12.939Z,96575.77
2018-12-20T00:35:48.888Z,96580.53
2018-12-20T00:37:24.159Z,96579.89
2018-12-20T00:38:59.125Z,96578.36
2018-12-20T00:40:34.246Z,96583.59
2018-12-20T00:42:10.916Z,96573.94
2018-12-20T00:43:46.147Z,96565.86
2018-12-20T00:45:21.137Z,96573.52
2018-12-20T00:46:56.355Z,96572.93
2018-12-20T00:48:32.361Z,96568.86
2018-12-20T00:50:08.607Z,96574.47
2018-12-20T00:51:44.082Z,96575.38
2018-12-20T00:53:19.552Z,96573.94
2018-12-20T00:54:54.605Z,96572.41
2018-12-20T00:56:29.940Z,96583.25
2018-12-20T00:58:04.997Z,96575.20
2018-12-20T00:59:41.139Z,96575.26
2018-12-20T01:01:16.433Z,96577.73
2018-12-20T01:02:55.309Z,96576.82
2018-12-20T01:04:30.207Z,96578.27
2018-12-20T01:06:09.218Z,96575.11
2018-12-20T01:07:44.476Z,96570.98
2018-12-20T01:09:19.388Z,96574.26
2018-12-20T01:10:54.464Z,96572.67
2018-12-20T01:12:29.547Z,96568.34
2018-12-20T01:14:04.569Z,96566.13
2018-12-20T01:15:40.366Z,96568.84
2018-12-20T01:17:15.981Z,96561.47
2018-12-20T01:18:51.070Z,96561.56
2018-12-20T01:20:26.954Z,96562.30
2018-12-20T01:22:02.133Z,96556.05
2018-12-20T01:23:37.735Z,96559.20
2018-12-20T01:25:12.600Z,96561.64
2018-12-20T01:26:47.710Z,96561.64
2018-12-20T01:28:23.195Z,96556.31
2018-12-20T01:29:58.357Z,96549.13
2018-12-20T01:31:33.574Z,96551.66
2018-12-20T01:33:08.487Z,96547.53
2018-12-20T01:34:46.433Z,96547.17
2018-12-20T01:36:22.394Z,96557.08
2018-12-20T01:37:57.755Z,96559.34
2018-12-20T01:39:32.772Z,96555.28
2018-12-20T01:41:07.697Z,96551.04
2018-12-20T01:42:42.920Z,96557.23
2018-12-20T01:44:18.462Z,96546.56
2018-12-20T01:45:53.519Z,96556.81
2018-12-20T01:47:29.113Z,96549.09
2018-12-20T01:49:04.290Z,96554.05
2018-12-20T01:50:40.374Z,96548.09
2018-12-20T01:52:15.846Z,96548.00
2018-12-20T01:53:51.272Z,96549.68
2018-12-20T01:55:26.401Z,96544.02
2018-12-20T01:57:06.468Z,96550.03
2018-12-20T01:58:42.019Z,96544.79
2018-12-20T02:00:18.016Z,96545.97
2018-12-20T02:01:53.308Z,96539.22
2018-12-20T02:03:30.062Z,96547.33
2018-12-20T02:05:05.362Z,96544.61
2018-12-20T02:06:40.568Z,96544.97
2018-12-20T02:08:18.872Z,96549.09
2018-12-20T02:09:54.337Z,96540.37
2018-12-20T02:11:29.741Z,96539.78
2018-12-20T02:13:04.803Z,96543.14
2018-12-20T02:14:39.842Z,96536.06
2018-12-20T02:16:26.719Z,96535.06
2018-12-20T02:18:01.692Z,96535.39
2018-12-20T02:19:36.739Z,96532.17
2018-12-20T02:21:12.294Z,96528.17
2018-12-20T02:22:47.411Z,96529.88
2018-12-20T02:24:23.575Z,96522.59
2018-12-20T02:25:58.887Z,96522.52
2018-12-20T02:27:34.144Z,96520.04
2018-12-20T02:29:11.289Z,96514.44
2018-12-20T02:30:46.725Z,96516.83
2018-12-20T02:32:23.574Z,96512.28
2018-12-20T02:33:58.859Z,96512.34
2018-12-20T02:35:34.688Z,96508.86
2018-12-20T02:37:09.661Z,96506.16
2018-12-20T02:38:45.016Z,96513.52
2018-12-20T02:40:21.658Z,96504.03
2018-12-20T02:41:56.998Z,96500.82
2018-12-20T02:43:33.501Z,96505.48
2018-12-20T02:45:10.991Z,96503.53
2018-12-20T02:46:51.131Z,96498.72
2018-12-20T02:48:27.646Z,96495.59
2018-12-20T02:50:03.818Z,96501.84
2018-12-20T02:51:40.011Z,96494.89
2018-12-20T02:53:16.675Z,96492.53
2018-12-20T02:54:52.248Z,96498.20
2018-12-20T02:56:29.170Z,96494.89
2018-12-20T02:58:06.362Z,96496.48
2018-12-20T02:59:42.718Z,96488.36
2018-12-20T03:01:22.527Z,96484.75
2018-12-20T03:03:03.068Z,96491.53
2018-12-20T03:04:45.082Z,96484.05
2018-12-20T03:06:26.602Z,96488.53
2018-12-20T03:08:01.802Z,96483.97
2018-12-20T03:09:40.123Z,96484.47
2018-12-20T03:11:15.750Z,96486.34
2018-12-20T03:12:53.229Z,96482.10
2018-12-20T03:14:29.789Z,96477.62
2018-12-20T03:16:07.637Z,96476.44
2018-12-20T03:17:43.539Z,96473.24
2018-12-20T03:19:23.477Z,96477.38
2018-12-20T03:20:59.003Z,96473.84
2018-12-20T03:22:36.242Z,96478.91
2018-12-20T03:24:13.901Z,96478.25
2018-12-20T03:25:51.599Z,96482.21
2018-12-20T03:27:27.698Z,96470.27
2018-12-20T03:29:02.860Z,96465.17
2018-12-20T03:30:38.833Z,96471.13
2018-12-20T03:32:15.121Z,96472.66
2018-12-20T03:33:50.735Z,96465.88
2018-12-20T03:35:29.488Z,96470.59
2018-12-20T03:37:05.226Z,96464.52
2018-12-20T03:38:41.235Z,96465.77
2018-12-20T03:40:18.070Z,96459.09
2018-12-20T03:41:53.497Z,96455.03
2018-12-20T03:43:29.539Z,96459.09
2018-12-20T03:45:06.241Z,96466.96
2018-12-20T03:46:41.503Z,96454.58
2018-12-20T03:48:16.890Z,96454.33
2018-12-20T03:49:52.585Z,96450.96
2018-12-20T03:51:27.929Z,96452.38
2018-12-20T03:53:03.111Z,96455.58
2018-12-20T03:54:38.135Z,96450.68
2018-12-20T03:56:12.962Z,96453.15
2018-12-20T03:57:48.850Z,96452.81
2018-12-20T03:59:23.733Z,96452.04
2018-12-20T04:00:58.827Z,96449.67
2018-12-20T04:02:33.762Z,96450.20
2018-12-20T04:04:09.523Z,96455.34
2018-12-20T04:05:46.650Z,96443.91
2018-12-20T04:07:22.633Z,96448.39
2018-12-20T04:08:57.634Z,96450.75
2018-12-20T04:10:37.976Z,96449.39
2018-12-20T04:12:14.374Z,96449.50
2018-12-20T04:13:50.519Z,96452.87
2018-12-20T04:15:27.717Z,96447.86
2018-12-20T04:17:03.324Z,96449.39
2018-12-20T04:18:38.670Z,96447.03
2018-12-20T04:20:13.710Z,96442.37
2018-12-20T04:22:05.950Z,96447.31
2018-12-20T04:23:41.407Z,96447.86
2018-12-20T04:25:16.740Z,96446.96
2018-12-20T04:26:51.985Z,96444.73
2018-12-20T04:28:28.239Z,96453.11
2018-12-20T04:30:05.235Z,96444.08
2018-12-20T04:31:41.470Z,96447.86
2018-12-20T04:33:16.681Z,96442.44
2018-12-20T04:34:54.291Z,96445.33
2018-12-20T04:36:31.553Z,96450.92
2018-12-20T04:38:09.813Z,96445.33
2018-12-20T04:39:48.413Z,96446.33
2018-12-20T04:41:36.612Z,96450.75
2018-12-20T04:43:13.528Z,96445.33
2018-12-20T04:44:52.676Z,96438.38
2018-12-20T04:46:29.221Z,96441.19
2018-12-20T04:48:04.695Z,96439.73
2018-12-20T04:49:41.095Z,96444.06
2018-12-20T04:51:19.371Z,96443.30
2018-12-20T04:52:57.223Z,96445.84
2018-12-20T04:54:36.549Z,96446.95
2018-12-20T04:56:15.039Z,96448.98
2018-12-20T04:57:53.023Z,96448.63
2018-12-20T04:59:28.291Z,96444.39
2018-12-20T05:01:06.947Z,96436.60
2018-12-20T05:02:45.630Z,96442.61
2018-12-20T05:04:22.490Z,96439.66
2018-12-20T05:05:59.606Z,96446.51
2018-12-20T05:07:37.680Z,96443.91
2018-12-20T05:09:18.617Z,96443.54
2018-12-20T05:10:54.857Z,96444.90
2018-12-20T05:12:30.326Z,96445.31
2018-12-20T05:14:05.984Z,96448.61
2018-12-20T05:15:41.521Z,96437.88
2018-12-20T05:17:18.224Z,96434.99
2018-12-20T05:18:53.651Z,96435.16
2018-12-20T05:20:28.882Z,96428.22
2018-12-20T05:22:04.486Z,96430.34
2018-12-20T05:23:42.930Z,96434.13
2018-12-20T05:25:18.120Z,96433.13
2018-12-20T05:26:53.151Z,96430.34
2018-12-20T05:28:28.072Z,96444.13
2018-12-20T05:30:04.963Z,96439.23
2018-12-20T05:31:44.922Z,96439.14
2018-12-20T05:33:20.404Z,96441.67
2018-12-20T05:34:58.693Z,96442.27
2018-12-20T05:36:42.619Z,96445.73
2018-12-20T05:38:21.377Z,96451.33
2018-12-20T05:39:58.439Z,96449.73
2018-12-20T05:41:40.223Z,96452.09
2018-12-20T05:43:15.949Z,96451.84
2018-12-20T05:44:55.352Z,96452.86
2018-12-20T05:46:33.962Z,96451.39
2018-12-20T05:48:09.210Z,96442.49
2018-12-20T05:49:55.718Z,96443.61
2018-12-20T05:57:36.540Z,96446.19
2018-12-20T05:59:12.374Z,96442.19
2018-12-20T06:00:47.513Z,96440.17
2018-12-20T06:02:25.947Z,96447.26
2018-12-20T06:04:01.457Z,96449.62
2018-12-20T06:05:36.487Z,96448.09
2018-12-20T06:07:11.633Z,96451.39
2018-12-20T06:08:51.381Z,96455.05
2018-12-20T06:10:26.466Z,96450.73
2018-12-20T06:12:03.182Z,96454.69
2018-12-20T06:13:39.256Z,96464.17
2018-12-20T06:15:16.163Z,96462.33
2018-12-20T06:17:10.894Z,96461.16
2018-12-20T06:18:46.777Z,96449.62
2018-12-20T06:20:24.888Z,96451.98
2018-12-20T06:22:00.051Z,96452.16
2018-12-20T06:23:35.327Z,96450.80
2018-12-20T06:25:10.749Z,96449.03
2018-12-20T06:26:45.906Z,96449.03
2018-12-20T06:28:22.000Z,96455.63
2018-12-20T06:29:57.854Z,96460.88
2018-12-20T06:31:33.627Z,96455.05
2018-12-20T06:33:10.416Z,96449.97
2018-12-20T06:34:45.783Z,96454.45
2018-12-20T06:36:24.383Z,96447.44
2018-12-20T06:37:59.235Z,96453.27
2018-12-20T06:39:35.016Z,96453.86
2018-12-20T06:41:10.747Z,96455.05
2018-12-20T06:42:46.307Z,96459.02
2018-12-20T06:44:21.194Z,96458.84
2018-12-20T06:45:58.246Z,96458.84
2018-12-20T06:47:34.039Z,96461.47
2018-12-20T06:49:10.625Z,96467.41
2018-12-20T06:50:46.514Z,96456.16
2018-12-20T06:52:21.368Z,96458.10
2018-12-20T06:53:56.352Z,96470.13
2018-12-20T06:55:31.904Z,96468.83
2018-12-20T06:57:07.655Z,96468.83
2018-12-20T06:58:42.646Z,96474.43
2018-12-20T07:00:19.573Z,96469.19
2018-12-20T07:01:55.396Z,96468.95
2018-12-20T07:03:31.836Z,96463.77
2018-12-20T07:05:07.440Z,96467.30
2018-12-20T07:06:43.931Z,96473.48
2018-12-20T07:08:22.614Z,96474.25
2018-12-20T07:09:57.408Z,96479.35
2018-12-20T07:11:32.542Z,96478.59
2018-12-20T07:13:08.543Z,96471.55
2018-12-20T07:14:46.297Z,96477.38
2018-12-20T07:16:29.143Z,96474.43
2018-12-20T07:17:59.007Z,96479.35
2018-12-20T07:19:33.846Z,96474.52
2018-12-20T07:21:11.624Z,96482.98
2018-12-20T07:24:35.250Z,96477.55
2018-12-20T07:26:13.580Z,96477.38
2018-12-20T07:27:48.427Z,96485.95
2018-12-20T07:29:23.624Z,96488.48
2018-12-20T07:31:00.134Z,96491.11
2018-12-20T07:32:34.906Z,96497.13
2018-12-20T07:34:09.739Z,96497.56
2018-12-20T07:35:45.002Z,96490.45
2018-12-20T07:37:20.927Z,96486.22
2018-12-20T07:38:56.591Z,96492.28
2018-12-20T07:40:32.743Z,96494.27
2018-12-20T07:42:09.681Z,96502.13
2018-12-20T07:43:44.981Z,96495.53
2018-12-20T07:45:20.501Z,96501.78
2018-12-20T07:46:59.206Z,96500.69
2018-12-20T07:48:35.202Z,96501.19
2018-12-20T07:50:13.867Z,96501.04
2018-12-20T07:51:48.975Z,96503.30
2018-12-20T07:53:23.803Z,96499.95
2018-12-20T07:54:58.656Z,96499.53
2018-12-20T07:56:34.441Z,96499.06
2018-12-20T07:58:10.615Z,96501.78
2018-12-20T07:59:50.613Z,96502.98
2018-12-20T08:01:53.277Z,96501.69
2018-12-20T08:03:37.289Z,96500.52
2018-12-20T08:05:16.481Z,96504.98
2018-12-20T08:06:57.072Z,96494.77
2018-12-20T08:08:32.819Z,96501.13
2018-12-20T08:10:18.776Z,96507.64
2018-12-20T08:11:55.280Z,96508.91
2018-12-20T08:13:30.129Z,96503.66
2018-12-20T08:15:07.327Z,96508.25
2018-12-20T08:16:46.107Z,96511.70
2018-12-20T08:18:21.597Z,96514.06
2018-12-20T08:19:58.326Z,96516.77
2018-12-20T08:21:33.325Z,96515.27
2018-12-20T08:23:10.809Z,96514.91
2018-12-20T08:24:48.842Z,96514.33
2018-12-20T08:26:29.679Z,96521.87
2018-12-20T08:28:09.516Z,96516.19
2018-12-20T08:29:47.279Z,96518.92
2018-12-20T08:31:22.475Z,96522.11
2018-12-20T08:32:59.256Z,96526.61
2018-12-20T08:34:35.260Z,96534.74
2018-12-20T08:36:11.746Z,96527.44
2018-12-20T08:37:48.656Z,96527.03
2018-12-20T08:39:28.841Z,96526.84
2018-12-20T08:41:03.870Z,96530.86
2018-12-20T08:42:43.830Z,96523.05
2018-12-20T08:44:22.404Z,96526.08
2018-12-20T08:45:58.897Z,96530.73
2018-12-20T08:47:34.443Z,96530.15
2018-12-20T08:49:11.363Z,96531.09
2018-12-20T08:50:48.559Z,96535.63
2018-12-20T08:52:27.493Z,96532.33
2018-12-20T08:54:05.431Z,96533.98
2018-12-20T08:55:43.741Z,96538.87
2018-12-20T08:57:20.567Z,96531.33
2018-12-20T08:58:56.855Z,96540.64
2018-12-20T09:00:33.404Z,96538.63
2018-12-20T09:02:15.844Z,96543.47
2018-12-20T09:03:57.108Z,96541.84
2018-12-20T09:05:39.300Z,96545.91
2018-12-20T09:07:18.448Z,96544.11
2018-12-20T09:08:54.475Z,96543.52
2018-12-20T09:10:30.519Z,96543.94
2018-12-20T09:12:08.664Z,96545.41
2018-12-20T09:13:44.994Z,96542.94
2018-12-20T09:15:26.627Z,96546.83
2018-12-20T09:17:06.371Z,96543.47
2018-12-20T09:18:47.300Z,96539.25
2018-12-20T09:22:15.378Z,96544.67
2018-12-20T09:23:52.438Z,96543.97
2018-12-20T09:25:31.277Z,96541.02
2018-12-20T09:27:15.091Z,96549.13
2018-12-20T09:28:54.792Z,96548.00
2018-12-20T09:30:35.597Z,96542.41
2018-12-20T09:32:13.052Z,96552.12
2018-12-20T09:33:56.845Z,96550.30
2018-12-20T09:35:49.101Z,96555.13
2018-12-20T09:37:29.833Z,96552.69
2018-12-20T09:39:17.797Z,96545.77
2018-12-20T09:40:54.670Z,96548.20
2018-12-20T09:42:30.104Z,96547.17
2018-12-20T09:44:04.939Z,96547.13
2018-12-20T09:45:42.194Z,96550.48
2018-12-20T09:47:23.826Z,96544.09
2018-12-20T09:48:58.735Z,96542.73
2018-12-20T09:50:35.227Z,96543.78
2018-12-20T09:52:15.607Z,96541.58
2018-12-20T09:53:53.528Z,96535.54
2018-12-20T09:55:42.744Z,96533.59
2018-12-20T09:57:30.141Z,96540.20
2018-12-20T09:59:07.673Z,96542.14
2018-12-20T10:00:45.111Z,96543.91
2018-12-20T10:02:20.265Z,96536.48
2018-12-20T10:04:00.109Z,96541.48
2018-12-20T10:05:37.434Z,96537.92
2018-12-20T10:07:30.096Z,96530.31
2018-12-20T10:09:11.887Z,96535.89
2018-12-20T10:10:48.146Z,96537.69
2018-12-20T10:12:25.338Z,96537.80
2018-12-20T10:14:04.349Z,96536.80
2018-12-20T10:15:43.462Z,96532.97
2018-12-20T10:17:19.958Z,96523.59
2018-12-20T10:18:57.416Z,96528.96
2018-12-20T10:22:36.559Z,96534.42
2018-12-20T10:24:15.853Z,96537.55
2018-12-20T10:25:55.766Z,96530.15
2018-12-20T10:27:32.910Z,96530.73
2018-12-20T10:29:08.576Z,96531.68
2018-12-20T10:30:45.468Z,96537.69
2018-12-20T10:32:28.640Z,96534.39
2018-12-20T10:34:05.404Z,96540.23
2018-12-20T10:35:42.115Z,96537.58
2018-12-20T10:37:18.503Z,96536.62
2018-12-20T10:38:55.389Z,96530.20
2018-12-20T10:40:45.340Z,96526.32
2018-12-20T10:42:26.090Z,96524.84
2018-12-20T10:44:11.371Z,96525.76
2018-12-20T10:47:45.645Z,96541.37
2018-12-20T10:49:25.542Z,96529.77
2018-12-20T10:51:03.549Z,96532.47
2018-12-20T10:52:40.383Z,96529.97
2018-12-20T10:54:18.727Z,96522.61
2018-12-20T10:55:58.709Z,96521.66
2018-12-20T10:57:36.155Z,96515.95
2018-12-20T10:59:14.934Z,96515.09
2018-12-20T11:00:56.395Z,96514.59
2018-12-20T11:04:38.320Z,96511.79
2018-12-20T11:06:18.143Z,96504.30
2018-12-20T11:08:00.348Z,96504.97
2018-12-20T11:09:40.471Z,96500.08
2018-12-20T11:11:19.356Z,96497.95
2018-12-20T11:12:54.162Z,96499.48
2018-12-20T11:14:30.313Z,96490.17
2018-12-20T11:16:09.333Z,96486.70
2018-12-20T11:17:44.490Z,96492.36
2018-12-20T11:19:20.587Z,96490.52
2018-12-20T11:20:55.702Z,96482.56
2018-12-20T11:22:33.143Z,96478.38
2018-12-20T11:24:10.803Z,96488.29
2018-12-20T11:25:46.351Z,96484.59
2018-12-20T11:27:22.631Z,96485.98
2018-12-20T11:28:58.117Z,96483.83
2018-12-20T11:30:33.672Z,96482.64
2018-12-20T11:32:08.912Z,96480.28
2018-12-20T11:33:43.948Z,96479.69
2018-12-20T11:35:19.201Z,96472.08
2018-12-20T11:36:54.368Z,96476.91
2018-12-20T11:38:30.663Z,96478.09
2018-12-20T11:40:06.528Z,96474.61
2018-12-20T11:41:41.746Z,96476.21
2018-12-20T11:43:16.554Z,96479.61
2018-12-20T11:44:53.248Z,96474.02
2018-12-20T11:46:32.655Z,96483.83
2018-12-20T11:48:12.168Z,96480.34
2018-12-20T11:49:46.980Z,96477.73
2018-12-20T11:51:21.934Z,96478.98
2018-12-20T11:52:57.498Z,96477.19
2018-12-20T11:54:33.398Z,96482.20
2018-12-20T11:56:08.438Z,96487.17
2018-12-20T11:57:43.231Z,96490.41
2018-12-20T11:59:20.215Z,96477.03
2018-12-20T12:00:55.725Z,96482.02
2018-12-20T12:02:31.572Z,96487.75
2018-12-20T12:04:07.123Z,96484.51
2018-12-20T12:05:46.519Z,96483.09
2018-12-20T12:07:24.671Z,96482.28
2018-12-20T12:09:07.956Z,96484.22
2018-12-20T12:10:43.489Z,96480.20
2018-12-20T12:12:19.972Z,96475.20
2018-12-20T12:13:55.110Z,96481.63
2018-12-20T12:15:31.771Z,96473.27
2018-12-20T12:17:11.733Z,96469.38
2018-12-20T12:18:46.757Z,96474.14
2018-12-20T12:20:23.464Z,96481.41
2018-12-20T12:22:03.245Z,96481.41
2018-12-20T12:23:39.548Z,96472.61
2018-12-20T12:25:16.142Z,96472.44
2018-12-20T12:26:52.679Z,96467.45
2018-12-20T12:28:28.236Z,96474.73
2018-12-20T12:30:05.947Z,96471.01
2018-12-20T12:31:43.247Z,96472.61
2018-12-20T12:33:19.034Z,96472.19
2018-12-20T12:34:58.412Z,96476.95
2018-12-20T12:36:33.394Z,96482.76
2018-12-20T12:38:27.172Z,96480.91
2018-12-20T12:40:08.699Z,96474.14
2018-12-20T12:41:44.439Z,96480.33
2018-12-20T12:43:19.362Z,96475.08
2018-12-20T12:44:57.886Z,96470.49
2018-12-20T12:46:34.237Z,96479.67
2018-12-20T12:48:09.323Z,96473.06
2018-12-20T12:49:45.045Z,96483.45
2018-12-20T12:51:21.219Z,96481.51
2018-12-20T12:52:56.830Z,96479.22
2018-12-20T12:54:31.963Z,96488.88
2018-12-20T12:56:09.490Z,96485.75
2018-12-20T12:57:46.520Z,96477.72
2018-12-20T12:59:22.712Z,96482.17
2018-12-20T13:01:00.367Z,96484.88
2018-12-20T13:02:40.062Z,96481.50
2018-12-20T13:04:14.908Z,96481.67
2018-12-20T13:05:50.465Z,96480.91
2018-12-20T13:07:25.342Z,96480.14
2018-12-20T13:09:01.319Z,96474.45
2018-12-20T13:10:36.737Z,96481.58
2018-12-20T13:12:12.550Z,96480.81
2018-12-20T13:13:47.641Z,96477.34
2018-12-20T13:15:24.014Z,96483.94
2018-12-20T13:16:58.850Z,96482.69
2018-12-20T13:18:33.801Z,96480.04
2018-12-20T13:20:12.048Z,96477.08
2018-12-20T13:21:47.537Z,96483.11
2018-12-20T13:23:25.692Z,96482.86
2018-12-20T13:25:05.943Z,96476.57
2018-12-20T13:26:41.487Z,96474.89
2018-12-20T13:28:17.305Z,96474.89
2018-12-20T13:29:52.601Z,96468.78
2018-12-20T13:31:29.141Z,96467.95
2018-12-20T13:33:04.311Z,96466.28
2018-12-20T13:34:39.450Z,96468.47
2018-12-20T13:36:14.309Z,96471.35
2018-12-20T13:37:49.230Z,96476.67
2018-12-20T13:39:25.568Z,96483.39
2018-12-20T13:41:03.664Z,96479.55
2018-12-20T13:42:46.783Z,96469.48
2018-12-20T13:44:34.062Z,96464.75
2018-12-20T13:46:15.067Z,96470.28
2018-12-20T13:47:56.679Z,96461.86
2018-12-20T13:49:37.615Z,96464.58
2018-12-20T13:57:12.924Z,96461.59
2018-12-20T13:58:49.135Z,96466.69
2018-12-20T14:00:25.650Z,96469.66
2018-12-20T14:02:02.382Z,96465.83
2018-12-20T14:03:40.353Z,96467.11
2018-12-20T14:05:17.315Z,96463.98
2018-12-20T14:08:36.007Z,96478.48
2018-12-20T14:11:55.408Z,96481.69
2018-12-20T14:13:34.116Z,96487.11
2018-12-20T14:15:13.667Z,96481.16
2018-12-20T14:16:50.869Z,96478.55
2018-12-20T14:18:30.807Z,96482.69
2018-12-20T14:20:06.163Z,96485.16
2018-12-20T14:21:42.229Z,96487.16
2018-12-20T14:23:18.793Z,96482.34
2018-12-20T14:24:56.718Z,96483.28
2018-12-20T14:26:33.978Z,96486.00
2018-12-20T14:28:17.409Z,96477.27
2018-12-20T14:29:54.917Z,96481.75
2018-12-20T14:31:33.061Z,96474.30
2018-12-20T14:33:08.194Z,96477.67
2018-12-20T14:34:45.296Z,96472.59
2018-12-20T14:36:23.628Z,96471.31
2018-12-20T14:38:01.567Z,96478.02
2018-12-20T14:39:42.746Z,96473.54
2018-12-20T14:41:18.852Z,96480.05
2018-12-20T14:42:57.260Z,96471.67
2018-12-20T14:44:33.505Z,96470.31
2018-12-20T14:46:11.161Z,96476.84
2018-12-20T14:47:48.182Z,96479.63
2018-12-20T14:49:30.901Z,96476.56
2018-12-20T14:51:09.698Z,96468.18
2018-12-20T14:52:47.281Z,96469.12
2018-12-20T14:54:24.636Z,96472.49
2018-12-20T14:56:04.768Z,96471.48
2018-12-20T14:57:40.036Z,96476.62
2018-12-20T14:59:17.127Z,96470.79
2018-12-20T15:00:59.683Z,96469.54
2018-12-20T15:02:41.140Z,96477.84
2018-12-20T15:04:25.392Z,96476.03
2018-12-20T15:06:05.992Z,96476.62
2018-12-20T15:07:50.584Z,96470.38
2018-12-20T15:09:32.136Z,96472.08
2018-12-20T15:11:44.691Z,96476.90
2018-12-20T15:13:27.291Z,96485.27
2018-12-20T15:15:06.205Z,96479.26
2018-12-20T15:16:43.581Z,96485.52
2018-12-20T15:18:19.163Z,96477.45
2018-12-20T15:19:54.671Z,96481.25
2018-12-20T15:21:33.117Z,96477.02
2018-12-20T15:23:08.900Z,96477.69
2018-12-20T15:24:47.052Z,96485.33
2018-12-20T15:26:25.924Z,96487.27
2018-12-20T15:28:02.675Z,96489.98
2018-12-20T15:29:40.057Z,96487.00
2018-12-20T15:31:17.763Z,96489.45
2018-12-20T15:32:56.332Z,96493.78
2018-12-20T15:34:34.263Z,96495.23
2018-12-20T15:36:17.639Z,96501.54
2018-12-20T15:37:55.505Z,96499.33
2018-12-20T15:39:33.857Z,96496.97
2018-12-20T15:41:11.018Z,96497.39
2018-12-20T15:42:47.912Z,96500.77
2018-12-20T15:44:30.366Z,96501.28
2018-12-20T15:46:12.310Z,96503.63
2018-12-20T15:47:49.342Z,96497.80
2018-12-20T15:49:28.809Z,96503.05
2018-12-20T15:51:07.154Z,96505.70
2018-12-20T15:52:50.622Z,96503.98
2018-12-20T15:54:30.684Z,96505.34
2018-12-20T15:56:06.982Z,96501.69
2018-12-20T15:57:44.930Z,96502.16
2018-12-20T15:59:26.702Z,96504.98
2018-12-20T16:01:13.162Z,96507.23
2018-12-20T16:02:52.511Z,96515.13
2018-12-20T16:04:30.847Z,96517.84
2018-12-20T16:06:19.419Z,96515.80
2018-12-20T16:08:00.394Z,96523.08
2018-12-20T16:09:42.784Z,96516.54
2018-12-20T16:11:28.241Z,96519.42
2018-12-20T16:15:19.304Z,96523.31
2018-12-20T16:17:02.462Z,96521.28
2018-12-20T16:18:52.472Z,96523.94
2018-12-20T16:20:33.165Z,96532.39
2018-12-20T16:22:13.019Z,96527.14
2018-12-20T16:23:49.102Z,96533.56
2018-12-20T16:25:33.943Z,96528.09
2018-12-20T16:27:12.300Z,96537.12
2018-12-20T16:28:50.504Z,96536.01
2018-12-20T16:30:29.150Z,96537.83
2018-12-20T16:32:08.843Z,96537.95
2018-12-20T16:33:46.668Z,96536.59
2018-12-20T16:35:24.977Z,96542.42
2018-12-20T16:37:02.151Z,96548.91
2018-12-20T16:38:45.334Z,96549.56
2018-12-20T16:40:22.966Z,96546.49
2018-12-20T16:42:01.990Z,96552.62
2018-12-20T16:43:41.142Z,96552.21
2018-12-20T16:45:24.959Z,96552.03
2018-12-20T16:47:04.845Z,96554.98
2018-12-20T16:48:40.867Z,96552.68
2018-12-20T16:50:30.018Z,96559.28
2018-12-20T16:52:18.604Z,96561.81
2018-12-20T16:54:09.565Z,96562.39
2018-12-20T16:55:58.348Z,96556.21
2018-12-20T16:57:42.756Z,96554.63
2018-12-20T16:59:22.059Z,96556.92
2018-12-20T17:00:58.693Z,96554.03
2018-12-20T17:02:42.324Z,96552.45
2018-12-20T17:04:19.725Z,96553.63
2018-12-20T17:06:06.942Z,96549.26
2018-12-20T17:07:50.705Z,96550.14
2018-12-20T17:09:31.538Z,96551.38
2018-12-20T17:11:07.620Z,96560.09
2018-12-20T17:12:45.191Z,96555.80
2018-12-20T17:14:21.032Z,96555.21
2018-12-20T17:15:57.597Z,96559.45
2018-12-20T17:17:40.050Z,96565.81
2018-12-20T17:19:22.183Z,96560.86
2018-12-20T17:20:54.778Z,96555.21
2018-12-20T17:22:31.938Z,96557.56
2018-12-20T17:24:07.901Z,96561.81
2018-12-20T17:25:43.225Z,96555.03
2018-12-20T17:27:19.536Z,96555.80
2018-12-20T17:28:59.808Z,96549.44
2018-12-20T17:30:38.530Z,96554.50
2018-12-20T17:32:24.684Z,96557.80
2018-12-20T17:34:04.804Z,96563.39
2018-12-20T17:35:42.160Z,96557.74
2018-12-20T17:37:21.448Z,96556.44
2018-12-20T17:39:00.956Z,96564.16
2018-12-20T17:40:38.972Z,96556.44
2018-12-20T17:42:19.519Z,96563.48
2018-12-20T17:43:59.364Z,96564.83
2018-12-20T17:45:41.447Z,96560.28
2018-12-20T17:47:19.949Z,96555.45
2018-12-20T17:48:56.385Z,96562.89
2018-12-20T17:50:34.966Z,96561.09
2018-12-20T17:52:19.130Z,96558.06
2018-12-20T17:53:58.695Z,96556.70
2018-12-20T17:55:34.927Z,96560.95
2018-12-20T17:57:12.712Z,96560.95
2018-12-20T17:58:49.759Z,96559.69
2018-12-20T18:00:35.077Z,96562.30
2018-12-20T18:02:14.432Z,96551.61
2018-12-20T18:03:53.489Z,96550.26
2018-12-20T18:05:36.188Z,96556.88
2018-12-20T18:07:26.462Z,96546.63
2018-12-20T18:10:58.727Z,96550.88
2018-12-20T18:12:38.854Z,96551.16
2018-12-20T18:14:18.009Z,96551.61
2018-12-20T18:16:02.712Z,96548.98
2018-12-20T18:17:40.272Z,96553.59
2018-12-20T18:19:18.164Z,96557.70
2018-12-20T18:22:53.110Z,96552.05
2018-12-20T18:24:35.509Z,96559.59
2018-12-20T18:26:12.008Z,96550.79
2018-12-20T18:27:50.578Z,96554.50
2018-12-20T18:29:27.555Z,96561.45
2018-12-20T18:31:04.337Z,96552.33
2018-12-20T18:32:42.618Z,96550.44
2018-12-20T18:34:22.237Z,96556.88
2018-12-20T18:35:59.089Z,96560.77
2018-12-20T18:37:41.076Z,96554.23
2018-12-20T18:39:16.067Z,96556.44
2018-12-20T18:40:51.729Z,96554.41
2018-12-20T18:42:31.604Z,96561.18
2018-12-20T18:44:07.327Z,96555.58
2018-12-20T18:45:44.984Z,96559.41
2018-12-20T18:47:25.056Z,96567.55
2018-12-20T18:49:02.813Z,96556.30
2018-12-20T18:50:40.226Z,96560.51
2018-12-20T18:54:33.890Z,96555.63
2018-12-20T18:56:09.609Z,96557.56
2018-12-20T18:57:49.392Z,96556.39
2018-12-20T18:59:25.835Z,96552.86
2018-12-20T19:01:07.215Z,96542.78
2018-12-20T19:03:14.246Z,96548.20
2018-12-20T19:04:52.030Z,96556.16
2018-12-20T19:08:38.515Z,96555.63
2018-12-20T19:10:17.907Z,96563.16
2018-12-20T19:11:52.835Z,96562.22
2018-12-20T19:13:31.940Z,96565.34
2018-12-20T19:15:13.231Z,96557.20
2018-12-20T19:16:59.955Z,96561.86
2018-12-20T19:18:43.323Z,96567.81
2018-12-20T19:20:23.815Z,96558.69
2018-12-20T19:22:03.148Z,96565.70
2018-12-20T19:23:46.108Z,96569.34
2018-12-20T19:25:22.381Z,96570.52
2018-12-20T19:27:08.868Z,96575.30
2018-12-20T19:28:47.672Z,96579.24
2018-12-20T19:30:24.724Z,96575.77
2018-12-20T19:32:02.825Z,96581.01
2018-12-20T19:33:41.245Z,96573.82
2018-12-20T19:35:28.304Z,96571.65
2018-12-20T19:37:04.393Z,96578.47
2018-12-20T19:38:41.180Z,96574.23
2018-12-20T19:40:20.969Z,96574.82
2018-12-20T19:43:51.279Z,96574.00
2018-12-20T19:45:34.485Z,96574.23
2018-12-20T19:47:15.299Z,96578.13